x

Mid Gulf - 180 Nm South Of Southwest Pass, La (42001) Wave Buoy

5:50am - Sat 25th Apr 2015 All times are UTC.

  • Sig Wave height 3.6ft
  • Peak Period 4s
  • Average Period 4s
  • Wind
    20mph, 22mph gusts
  • Sea Temp 81°f
  • Air Temp 80°f
  • Sea Pressure 1011.6mb

More Historic Weather Station data

Upgrade to MSW Pro to gain access to the past 30 days of data for over 8000 Wavebouys and Weather Stations around the globe.

Join Pro

Comparision Forecast

View Surf forecast
   
Sat 04/25 5:50am 3.5ft 4s 4s 20 22 mph 1011.6mb 81f 80f
4:50am 3.5ft 4s 4s 20 25 mph 1011.7mb 81f 80f
3:50am 3.5ft 4s 4s 18 22 mph 1012mb 81f 80f
2:50am 3.5ft 6s 4s 20 22 mph 1011.9mb 81f 80f
1:50am 3.5ft 6s 4s 18 22 mph 1011.7mb 81f 80f
12:50am 3.5ft 6s 4s 18 20 mph 1011.3mb 81f 80f
Fri 04/24 11:50pm 3ft 6s 4s 18
mph
1011.6mb 81f 80f
10:50pm 3ft 4s 4s 13 16 mph 1012mb 81f 81f
9:50pm 2.5ft 5s 4s 13 16 mph 1011.8mb 81f 81f
8:50pm 2.5ft 5s 4s 16 18 mph 1012mb 81f 81f
7:50pm 2.5ft 4s 4s 16 18 mph 1013mb 81f 81f
6:50pm 2.5ft 4s 4s 13 16 mph 1013.8mb 81f 81f
5:50pm 2.5ft 5s 4s 13 16 mph 1014.1mb 81f 81f
4:50pm 2.5ft 5s 4s 16 18 mph 1014.5mb 81f 81f
3:50pm 2.5ft 6s 4s 13 16 mph 1014.6mb 81f 81f
2:50pm 2.5ft 5s 4s 11 13 mph 1014.4mb 81f 80f
1:50pm 2.5ft 6s 4s 11
mph
1014.1mb 80f 80f
12:50pm 2.5ft 5s 4s 9
mph
1014.1mb 80f 80f
11:50am 2.5ft 6s 4s 7 9 mph 1013.5mb 81f 80f
10:50am 2.5ft 6s 4s 16
mph
1012.9mb 81f 80f
9:50am 2.5ft 6s 4s 16 18 mph 1012.6mb 81f 80f
8:50am 2.5ft 6s 4s 13 16 mph 1012.4mb 81f 80f
7:50am 2.5ft 6s 4s 11 13 mph 1013mb 81f 80f
6:50am 2.5ft 6s 4s 11 13 mph 1013mb 81f 80f
5:50am 2.5ft 6s 5s 9 11 mph 1014.2mb 81f 80f
4:50am 3ft 6s 5s 9 11 mph 1014.1mb 81f 80f
3:50am 3ft 6s 5s 9 11 mph 1013.9mb 81f 80f
2:50am 3ft 7s 5s 9
mph
1013.8mb 81f 80f
1:50am 3.5ft 6s 5s 9
mph
1013.2mb 81f 80f
12:50am 3.5ft 6s 5s 7 9 mph 1013mb 81f 81f
Thu 04/23 11:50pm 3.5ft 6s 5s 9
mph
1012.6mb 81f 81f
10:50pm 3.5ft 6s 5s 11 16 mph 1012.7mb 81f 81f
9:50pm 4ft 5s 5s 11 13 mph 1012.6mb 81f 81f
8:50pm 3.5ft 6s 5s 11
mph
1012.8mb 81f 81f
7:50pm 3.5ft 5s 4s 11 13 mph 1013.2mb 81f 81f
6:50pm 3.5ft 5s 4s 13 16 mph 1013.5mb 81f 81f
5:50pm 4ft 5s 4s 16 18 mph 1013.7mb 81f 81f
4:50pm 4ft 5s 4s 16
mph
1014.3mb 81f 81f
3:50pm 4ft 5s 4s 16 18 mph 1013.9mb 81f 81f
2:50pm 4ft 5s 4s 16
mph
1014.1mb 81f 81f
1:50pm 4.5ft 5s 4s 13 18 mph 1013.3mb 81f 81f
12:50pm 4.5ft 5s 4s 16 18 mph 1013mb 80f 81f
11:50am 5ft 5s 4s 18 20 mph 1012.3mb 80f 81f
10:50am 4.5ft 5s 4s 20 25 mph 1011.3mb 80f 81f
9:50am 5ft 5s 4s 22 29 mph 1010.9mb 80f 80f
8:50am 4.5ft 5s 4s 25 29 mph 1010.9mb 80f 80f
7:50am 3.5ft 5s 4s 25 29 mph 1011.5mb 80f 79f
6:50am 3.5ft 6s 4s 22 27 mph 1012.7mb 80f 78f
5:50am 3.5ft 6s 4s 11 13 mph 1015.4mb 80f 80f
4:50am 3.5ft 5s 4s 16 18 mph 1013.8mb 80f 78f
3:50am 2.5ft 5s 4s 16 20 mph 1014mb 81f 80f
2:50am 3ft 5s 4s 13 16 mph 1013.6mb 81f 81f
1:50am 2.5ft 6s 5s 9 11 mph 1013.4mb 81f 81f
12:50am 2.5ft 5s 4s 9 11 mph 1013.1mb 81f 81f
Wed 04/22 11:50pm 2.5ft 4s 4s 7 9 mph 1012.7mb 81f 81f
10:50pm 3ft 4s 4s 9 11 mph 1012.4mb 81f 81f
9:50pm 3ft 5s 4s 13 16 mph 1012mb 81f 81f
8:50pm 3ft 6s 4s 16 18 mph 1011.4mb 81f 81f
7:50pm 2.5ft 5s 4s 16 18 mph 1012.1mb 81f 81f
6:50pm 2.5ft 5s 4s 16
mph
1013.1mb 81f 81f
5:50pm 2.5ft 5s 4s 13 16 mph 1013.8mb 81f 81f
4:50pm 3ft 5s 4s 11 13 mph 1014mb 81f 81f
3:50pm 3ft 5s 4s 11 13 mph 1014.2mb 81f 81f
2:50pm 3.5ft 5s 4s 13 16 mph 1014mb 80f 80f
1:50pm 3.5ft 5s 4s 13 16 mph 1013.7mb 80f 80f
12:50pm 3.5ft 5s 4s 16 18 mph 1013.5mb 80f 80f
11:50am 4ft 5s 5s 16 18 mph 1013.2mb 80f 79f
10:50am 3.5ft 5s 4s 13 16 mph 1013mb 80f 79f
9:50am 3.5ft 5s 5s 11 13 mph 1013.1mb 80f 79f
8:50am 4ft 5s 5s 11 13 mph 1013.1mb 80f 79f
7:50am 4.5ft 6s 5s 13
mph
1013.2mb 80f 78f
6:50am 5ft 6s 5s 13 18 mph 1013.7mb 80f 78f
5:50am 5ft 5s 5s 16 18 mph 1014.1mb 80f 79f
4:50am 5ft 6s 5s 18 22 mph 1014.2mb 80f 79f
3:50am 4.5ft 6s 5s 20 22 mph 1014.4mb 80f 78f
2:50am 5ft 6s 5s 20 25 mph 1014.3mb 80f 78f
1:50am 5ft 6s 5s 20 22 mph 1014.1mb 80f 78f
12:50am 5ft 6s 5s 20 25 mph 1013.5mb 80f 79f
Tue 04/21 11:50pm 5ft 6s 5s 25 27 mph 1012.7mb 80f 78f
10:50pm 5ft 5s 5s 22 27 mph 1013.1mb 80f 78f
9:50pm 5ft 5s 5s 25 29 mph 1013.1mb 80f 78f
8:50pm 4.5ft 5s 4s 20 25 mph 1013.8mb 80f 78f
7:50pm 4ft 5s 4s 22 27 mph 1013.3mb 80f 78f
6:50pm 3.5ft 4s 4s 20 25 mph 1013.9mb 80f 79f
5:50pm 3ft 4s 4s 20 22 mph 1013.7mb 80f 80f
4:50pm 3ft 4s 4s 18 20 mph 1014.5mb 80f 80f
3:50pm 2.5ft 4s 4s 18 20 mph 1014.6mb 80f 79f
2:50pm 2.5ft 6s 4s 18 20 mph 1014.7mb 80f 79f
1:50pm 2.5ft 7s 4s 16 18 mph 1014.5mb 80f 79f
12:50pm 2.5ft 6s 4s 13 18 mph 1014.2mb 80f 79f
11:50am 3ft 7s 4s 11 13 mph 1013.7mb 80f 79f
10:50am 2.5ft 6s 4s 13 16 mph 1012.7mb 80f 79f
9:50am 2.5ft 4s 4s 16 18 mph 1012mb 80f 79f
8:50am 3ft 5s 4s 11 13 mph 1012.5mb 80f 78f
7:50am 3ft 6s 5s 13 16 mph 1012.4mb 80f 78f
6:50am 3.5ft 5s 5s 13 16 mph 1013.1mb 80f 78f